PWSweather.com
Personal Weather Stations
Station Observations

YeovilGB

Lat: 50.949, Lon: -2.627

Elevation: 70

Station Type: Vantage Pro

http://www.yeovil-weather.me.uk/

High Low Average
Temperature 55.9°F13.3°C 46.5°F8.1°C 52.2°F11.2°C
Dew Point 55.0°F12.8°C 43.7°F6.5°C 50.6°F10.3°C
Winds 9.2 mph 14.8 kmh Calm Calm 2.0 mph S3.2 kmh S
Wind Gusts 21.9 mph35.2 kmh -- 5.0 mph8.0 kmh
Humidity 97% 90% 94%
Pressure 29.84 in1010.5 mb 29.43 in996.6 mb -
Precipitation 0.21 in5.3 mm - -
Hour Temp Dew Point Humidity Winds Wind Gusts Pressure Precip Precip Rate Daily Precip Total
12:00 AM 46.5°F8.1°C 43.7°F6.5°C 90% Calm Calm -- 29.84 in1010.5 mb - 0.00 in0.0 mm 0.00 in0.0 mm
12:10 AM 46.7°F8.2°C 43.9°F6.6°C 90% Calm Calm -- 29.84 in1010.5 mb - 0.00 in0.0 mm 0.00 in0.0 mm
12:20 AM 46.7°F8.2°C 43.9°F6.6°C 90% Calm Calm -- 29.83 in1010.2 mb - 0.00 in0.0 mm 0.00 in0.0 mm
12:30 AM 46.9°F8.3°C 44.4°F6.9°C 91% 1.2 mph S1.9 kmh S -- 29.82 in1009.8 mb - 0.00 in0.0 mm 0.00 in0.0 mm
12:40 AM 47.3°F8.5°C 44.8°F7.1°C 91% Calm Calm 3.5 mph5.6 kmh 29.82 in1009.8 mb - 0.00 in0.0 mm 0.00 in0.0 mm
12:50 AM 47.5°F8.6°C 45.0°F7.2°C 91% Calm Calm -- 29.82 in1009.8 mb - 0.00 in0.0 mm 0.00 in0.0 mm
01:00 AM 47.7°F8.7°C 45.2°F7.3°C 91% Calm Calm 3.5 mph5.6 kmh 29.82 in1009.8 mb - 0.00 in0.0 mm 0.00 in0.0 mm
01:10 AM 47.8°F8.8°C 45.3°F7.4°C 91% 1.2 mph SSW1.9 kmh SSW 3.5 mph5.6 kmh 29.82 in1009.8 mb - 0.00 in0.0 mm 0.00 in0.0 mm
01:20 AM 48.1°F8.9°C 45.6°F7.6°C 91% Calm Calm 2.3 mph3.7 kmh 29.81 in1009.5 mb - 0.00 in0.0 mm 0.00 in0.0 mm
01:30 AM 48.3°F9.1°C 45.8°F7.7°C 91% 2.3 mph SSW3.7 kmh SSW 1.2 mph1.9 kmh 29.81 in1009.5 mb - 0.00 in0.0 mm 0.00 in0.0 mm
01:40 AM 48.6°F9.2°C 46.1°F7.8°C 91% 3.5 mph S5.6 kmh S 9.2 mph14.8 kmh 29.80 in1009.1 mb - 0.00 in0.0 mm 0.00 in0.0 mm
01:50 AM 48.8°F9.3°C 46.3°F7.9°C 91% 1.2 mph S1.9 kmh S 5.8 mph9.3 kmh 29.80 in1009.1 mb - 0.00 in0.0 mm 0.00 in0.0 mm
02:00 AM 48.7°F9.3°C 46.2°F7.9°C 91% Calm Calm -- 29.80 in1009.1 mb - 0.00 in0.0 mm 0.00 in0.0 mm
02:10 AM 48.7°F9.3°C 45.9°F7.7°C 90% Calm Calm 2.3 mph3.7 kmh 29.79 in1008.8 mb - 0.00 in0.0 mm 0.00 in0.0 mm
02:20 AM 48.6°F9.2°C 46.1°F7.8°C 91% Calm Calm -- 29.79 in1008.8 mb - 0.00 in0.0 mm 0.00 in0.0 mm
02:30 AM 48.6°F9.2°C 46.1°F7.8°C 91% Calm Calm -- 29.79 in1008.8 mb - 0.00 in0.0 mm 0.00 in0.0 mm
02:40 AM 48.6°F9.2°C 46.1°F7.8°C 91% Calm Calm -- 29.78 in1008.5 mb - 0.00 in0.0 mm 0.00 in0.0 mm
02:50 AM 48.6°F9.2°C 46.1°F7.8°C 91% Calm Calm -- 29.77 in1008.1 mb - 0.00 in0.0 mm 0.00 in0.0 mm
03:00 AM 48.6°F9.2°C 46.1°F7.8°C 91% 1.2 mph SSE1.9 kmh SSE 5.8 mph9.3 kmh 29.76 in1007.8 mb - 0.00 in0.0 mm 0.00 in0.0 mm
03:10 AM 48.8°F9.3°C 46.6°F8.1°C 92% 2.3 mph S3.7 kmh S 4.6 mph7.4 kmh 29.76 in1007.8 mb - 0.00 in0.0 mm 0.00 in0.0 mm
03:20 AM 49.1°F9.5°C 46.9°F8.3°C 92% 2.3 mph S3.7 kmh S 8.1 mph13.0 kmh 29.76 in1007.8 mb - 0.00 in0.0 mm 0.00 in0.0 mm
03:30 AM 49.3°F9.6°C 46.8°F8.2°C 91% 2.3 mph S3.7 kmh S 4.6 mph7.4 kmh 29.75 in1007.5 mb - 0.00 in0.0 mm 0.00 in0.0 mm
03:40 AM 49.1°F9.5°C 46.6°F8.1°C 91% 3.5 mph SSE5.6 kmh SSE 5.8 mph9.3 kmh 29.74 in1007.1 mb - 0.00 in0.0 mm 0.00 in0.0 mm
03:50 AM 49.0°F9.4°C 46.8°F8.2°C 92% 5.8 mph SSE9.3 kmh SSE 10.4 mph16.7 kmh 29.73 in1006.8 mb - 0.00 in0.0 mm 0.00 in0.0 mm
04:00 AM 48.9°F9.4°C 47.0°F8.3°C 93% Calm Calm 2.3 mph3.7 kmh 29.73 in1006.8 mb - 0.00 in0.0 mm 0.00 in0.0 mm
04:10 AM 48.8°F9.3°C 47.2°F8.4°C 94% 1.2 mph S1.9 kmh S 3.5 mph5.6 kmh 29.72 in1006.4 mb - 0.00 in0.0 mm 0.00 in0.0 mm
04:20 AM 49.0°F9.4°C 47.3°F8.5°C 94% 1.2 mph SSE1.9 kmh SSE 3.5 mph5.6 kmh 29.72 in1006.4 mb - 0.00 in0.0 mm 0.00 in0.0 mm
04:30 AM 49.1°F9.5°C 47.4°F8.6°C 94% 3.5 mph SSE5.6 kmh SSE 4.6 mph7.4 kmh 29.71 in1006.1 mb - 0.00 in0.0 mm 0.00 in0.0 mm
04:40 AM 49.2°F9.6°C 47.5°F8.6°C 94% Calm Calm -- 29.71 in1006.1 mb - 0.00 in0.0 mm 0.00 in0.0 mm
04:50 AM 49.2°F9.6°C 47.8°F8.8°C 95% 2.3 mph S3.7 kmh S 4.6 mph7.4 kmh 29.71 in1006.1 mb - 0.00 in0.0 mm 0.00 in0.0 mm
05:00 AM 49.3°F9.6°C 47.9°F8.8°C 95% 2.3 mph S3.7 kmh S 8.1 mph13.0 kmh 29.70 in1005.8 mb - 0.01 in0.3 mm 0.01 in0.3 mm
05:10 AM 49.4°F9.7°C 48.0°F8.9°C 95% 3.5 mph S5.6 kmh S 4.6 mph7.4 kmh 29.69 in1005.4 mb - 0.02 in0.5 mm 0.02 in0.5 mm
05:20 AM 49.5°F9.7°C 48.1°F8.9°C 95% 3.5 mph SSE5.6 kmh SSE 10.4 mph16.7 kmh 29.68 in1005.1 mb - 0.01 in0.3 mm 0.03 in0.8 mm
05:30 AM 49.5°F9.7°C 48.1°F8.9°C 95% 3.5 mph S5.6 kmh S 13.8 mph22.2 kmh 29.67 in1004.7 mb - 0.00 in0.0 mm 0.03 in0.8 mm
05:40 AM 49.5°F9.7°C 48.1°F8.9°C 95% 2.3 mph S3.7 kmh S 5.8 mph9.3 kmh 29.66 in1004.4 mb - 0.02 in0.5 mm 0.05 in1.3 mm
05:50 AM 49.6°F9.8°C 48.2°F9.0°C 95% 5.8 mph S9.3 kmh S 11.5 mph18.5 kmh 29.66 in1004.4 mb - 0.01 in0.3 mm 0.05 in1.3 mm
06:00 AM 49.7°F9.8°C 48.6°F9.2°C 96% 2.3 mph SSE3.7 kmh SSE 8.1 mph13.0 kmh 29.65 in1004.1 mb - 0.00 in0.0 mm 0.05 in1.3 mm
06:10 AM 49.9°F9.9°C 48.8°F9.3°C 96% 2.3 mph S3.7 kmh S 11.5 mph18.5 kmh 29.65 in1004.1 mb - 0.01 in0.3 mm 0.06 in1.5 mm
06:20 AM 50.1°F10.1°C 49.0°F9.4°C 96% 5.8 mph S9.3 kmh S 10.4 mph16.7 kmh 29.64 in1003.7 mb - 0.01 in0.3 mm 0.06 in1.5 mm
06:30 AM 50.2°F10.1°C 49.1°F9.5°C 96% 4.6 mph S7.4 kmh S 11.5 mph18.5 kmh 29.64 in1003.7 mb - 0.00 in0.0 mm 0.06 in1.5 mm
06:40 AM 50.3°F10.2°C 49.2°F9.6°C 96% 4.6 mph SSE7.4 kmh SSE 9.2 mph14.8 kmh 29.63 in1003.4 mb - 0.01 in0.3 mm 0.07 in1.8 mm
06:50 AM 50.4°F10.2°C 49.3°F9.6°C 96% 5.8 mph SSE9.3 kmh SSE 15.0 mph24.1 kmh 29.62 in1003.0 mb - 0.02 in0.5 mm 0.09 in2.3 mm
07:00 AM 50.5°F10.3°C 49.4°F9.7°C 96% 6.9 mph S11.1 kmh S 11.5 mph18.5 kmh 29.61 in1002.7 mb - 0.02 in0.5 mm 0.11 in2.8 mm
07:10 AM 50.5°F10.3°C 49.4°F9.7°C 96% 8.1 mph SSE13.0 kmh SSE 12.7 mph20.4 kmh 29.61 in1002.7 mb - 0.02 in0.5 mm 0.13 in3.3 mm
07:20 AM 50.6°F10.3°C 49.5°F9.7°C 96% 8.1 mph SE13.0 kmh SE 21.9 mph35.2 kmh 29.59 in1002.0 mb - 0.02 in0.5 mm 0.13 in3.3 mm
07:30 AM 50.8°F10.4°C 49.7°F9.8°C 96% 2.3 mph S3.7 kmh S 9.2 mph14.8 kmh 29.59 in1002.0 mb - 0.00 in0.0 mm 0.13 in3.3 mm
07:40 AM 50.8°F10.4°C 49.7°F9.8°C 96% 6.9 mph SSE11.1 kmh SSE 15.0 mph24.1 kmh 29.59 in1002.0 mb - 0.01 in0.3 mm 0.14 in3.6 mm
07:50 AM 50.9°F10.5°C 49.8°F9.9°C 96% 4.6 mph SSE7.4 kmh SSE 11.5 mph18.5 kmh 29.59 in1002.0 mb - 0.01 in0.3 mm 0.14 in3.6 mm
08:00 AM 51.0°F10.6°C 49.9°F9.9°C 96% 5.8 mph SSE9.3 kmh SSE 11.5 mph18.5 kmh 29.58 in1001.7 mb - 0.01 in0.3 mm 0.15 in3.8 mm
08:10 AM 51.2°F10.7°C 50.1°F10.1°C 96% 5.8 mph SE9.3 kmh SE 12.7 mph20.4 kmh 29.57 in1001.4 mb - 0.01 in0.3 mm 0.15 in3.8 mm
08:20 AM 51.3°F10.7°C 50.5°F10.3°C 97% 4.6 mph S7.4 kmh S 10.4 mph16.7 kmh 29.56 in1001.0 mb - 0.01 in0.3 mm 0.16 in4.1 mm
08:30 AM 51.5°F10.8°C 50.7°F10.4°C 97% 5.8 mph SSE9.3 kmh SSE 10.4 mph16.7 kmh 29.56 in1001.0 mb - 0.01 in0.3 mm 0.16 in4.1 mm
08:40 AM 51.7°F10.9°C 50.9°F10.5°C 97% 9.2 mph SSE14.8 kmh SSE 16.1 mph25.9 kmh 29.55 in1000.7 mb - 0.00 in0.0 mm 0.16 in4.1 mm
08:50 AM 52.0°F11.1°C 51.2°F10.7°C 97% 8.1 mph S13.0 kmh S 19.6 mph31.5 kmh 29.54 in1000.3 mb - 0.00 in0.0 mm 0.16 in4.1 mm
09:00 AM 52.3°F11.3°C 51.5°F10.8°C 97% 6.9 mph S11.1 kmh S 16.1 mph25.9 kmh 29.54 in1000.3 mb - 0.00 in0.0 mm 0.16 in4.1 mm
09:10 AM 52.7°F11.5°C 51.9°F11.1°C 97% 3.5 mph SSE5.6 kmh SSE 13.8 mph22.2 kmh 29.54 in1000.3 mb - 0.00 in0.0 mm 0.16 in4.1 mm
09:20 AM 53.2°F11.8°C 52.4°F11.3°C 97% 1.2 mph SE1.9 kmh SE 4.6 mph7.4 kmh 29.54 in1000.3 mb - 0.00 in0.0 mm 0.16 in4.1 mm
09:30 AM 53.5°F11.9°C 52.7°F11.5°C 97% Calm Calm -- 29.53 in1000.0 mb - 0.00 in0.0 mm 0.16 in4.1 mm
09:40 AM 54.0°F12.2°C 53.2°F11.8°C 97% Calm Calm -- 29.53 in1000.0 mb - 0.00 in0.0 mm 0.16 in4.1 mm
09:50 AM 54.5°F12.5°C 53.7°F12.1°C 97% Calm Calm 6.9 mph11.1 kmh 29.54 in1000.3 mb - 0.00 in0.0 mm 0.16 in4.1 mm
10:00 AM 55.0°F12.8°C 54.2°F12.3°C 97% Calm Calm 5.8 mph9.3 kmh 29.53 in1000.0 mb - 0.00 in0.0 mm 0.16 in4.1 mm
10:10 AM 55.3°F12.9°C 54.5°F12.5°C 97% 1.2 mph S1.9 kmh S 4.6 mph7.4 kmh 29.54 in1000.3 mb - 0.00 in0.0 mm 0.16 in4.1 mm
10:20 AM 55.3°F12.9°C 54.5°F12.5°C 97% Calm Calm -- 29.54 in1000.3 mb - 0.00 in0.0 mm 0.16 in4.1 mm
10:30 AM 55.5°F13.1°C 54.7°F12.6°C 97% 2.3 mph SW3.7 kmh SW 3.5 mph5.6 kmh 29.54 in1000.3 mb - 0.00 in0.0 mm 0.16 in4.1 mm
10:40 AM 55.6°F13.1°C 54.7°F12.6°C 97% 5.8 mph S9.3 kmh S 8.1 mph13.0 kmh 29.54 in1000.3 mb - 0.00 in0.0 mm 0.16 in4.1 mm
10:50 AM 55.5°F13.1°C 54.7°F12.6°C 97% 2.3 mph SSW3.7 kmh SSW 6.9 mph11.1 kmh 29.55 in1000.7 mb - 0.00 in0.0 mm 0.16 in4.1 mm
11:00 AM 55.4°F13.0°C 54.6°F12.6°C 97% 1.2 mph SSW1.9 kmh SSW 4.6 mph7.4 kmh 29.55 in1000.7 mb - 0.00 in0.0 mm 0.16 in4.1 mm
11:10 AM 55.5°F13.1°C 54.7°F12.6°C 97% Calm Calm -- 29.54 in1000.3 mb - 0.00 in0.0 mm 0.16 in4.1 mm
11:20 AM 55.7°F13.2°C 54.9°F12.7°C 97% Calm Calm 5.8 mph9.3 kmh 29.54 in1000.3 mb - 0.00 in0.0 mm 0.16 in4.1 mm
11:30 AM 55.9°F13.3°C 55.0°F12.8°C 97% 2.3 mph S3.7 kmh S 4.6 mph7.4 kmh 29.54 in1000.3 mb - 0.00 in0.0 mm 0.16 in4.1 mm
11:40 AM 55.8°F13.2°C 55.0°F12.8°C 97% Calm Calm 8.1 mph13.0 kmh 29.55 in1000.7 mb - 0.00 in0.0 mm 0.16 in4.1 mm
11:50 AM 55.6°F13.1°C 54.5°F12.5°C 96% Calm Calm -- 29.55 in1000.7 mb - 0.00 in0.0 mm 0.16 in4.1 mm
12:00 PM 55.6°F13.1°C 54.5°F12.5°C 96% Calm Calm 4.6 mph7.4 kmh 29.55 in1000.7 mb - 0.00 in0.0 mm 0.16 in4.1 mm
12:10 PM 55.4°F13.0°C 54.3°F12.4°C 96% Calm Calm -- 29.54 in1000.3 mb - 0.00 in0.0 mm 0.16 in4.1 mm
12:20 PM 55.3°F12.9°C 54.2°F12.3°C 96% 1.2 mph S1.9 kmh S 5.8 mph9.3 kmh 29.54 in1000.3 mb - 0.00 in0.0 mm 0.16 in4.1 mm
12:30 PM 55.3°F12.9°C 54.2°F12.3°C 96% Calm Calm -- 29.54 in1000.3 mb - 0.00 in0.0 mm 0.16 in4.1 mm
12:40 PM 55.3°F12.9°C 54.2°F12.3°C 96% Calm Calm -- 29.54 in1000.3 mb - 0.00 in0.0 mm 0.16 in4.1 mm
12:50 PM 55.4°F13.0°C 54.3°F12.4°C 96% Calm Calm 4.6 mph7.4 kmh 29.53 in1000.0 mb - 0.00 in0.0 mm 0.16 in4.1 mm
01:00 PM 55.5°F13.1°C 54.4°F12.4°C 96% Calm Calm -- 29.53 in1000.0 mb - 0.00 in0.0 mm 0.16 in4.1 mm
01:10 PM 55.6°F13.1°C 54.5°F12.5°C 96% Calm Calm -- 29.53 in1000.0 mb - 0.00 in0.0 mm 0.16 in4.1 mm
01:20 PM 55.6°F13.1°C 54.2°F12.3°C 95% Calm Calm -- 29.53 in1000.0 mb - 0.00 in0.0 mm 0.16 in4.1 mm
01:30 PM 55.5°F13.1°C 54.1°F12.3°C 95% Calm Calm -- 29.53 in1000.0 mb - 0.00 in0.0 mm 0.16 in4.1 mm
01:40 PM 55.5°F13.1°C 54.1°F12.3°C 95% Calm Calm -- 29.52 in999.7 mb - 0.00 in0.0 mm 0.16 in4.1 mm
01:50 PM 55.5°F13.1°C 54.1°F12.3°C 95% Calm Calm 3.5 mph5.6 kmh 29.52 in999.7 mb - 0.00 in0.0 mm 0.16 in4.1 mm
02:00 PM 55.5°F13.1°C 53.8°F12.1°C 94% 1.2 mph S1.9 kmh S 4.6 mph7.4 kmh 29.52 in999.7 mb - 0.00 in0.0 mm 0.16 in4.1 mm
02:10 PM 55.5°F13.1°C 53.8°F12.1°C 94% 1.2 mph SSW1.9 kmh SSW 5.8 mph9.3 kmh 29.52 in999.7 mb - 0.00 in0.0 mm 0.16 in4.1 mm
02:20 PM 55.5°F13.1°C 53.8°F12.1°C 94% Calm Calm 2.3 mph3.7 kmh 29.52 in999.7 mb - 0.00 in0.0 mm 0.16 in4.1 mm
02:30 PM 55.5°F13.1°C 53.8°F12.1°C 94% 1.2 mph S1.9 kmh S 6.9 mph11.1 kmh 29.52 in999.7 mb - 0.00 in0.0 mm 0.16 in4.1 mm
02:40 PM 55.3°F12.9°C 53.6°F12.0°C 94% 1.2 mph SSW1.9 kmh SSW -- 29.51 in999.3 mb - 0.00 in0.0 mm 0.16 in4.1 mm
02:50 PM 55.2°F12.9°C 53.5°F11.9°C 94% Calm Calm -- 29.52 in999.7 mb - 0.00 in0.0 mm 0.16 in4.1 mm
03:00 PM 55.2°F12.9°C 53.5°F11.9°C 94% 1.2 mph S1.9 kmh S -- 29.52 in999.7 mb - 0.00 in0.0 mm 0.16 in4.1 mm
03:10 PM 55.0°F12.8°C 53.3°F11.8°C 94% 1.2 mph SSW1.9 kmh SSW 2.3 mph3.7 kmh 29.52 in999.7 mb - 0.00 in0.0 mm 0.16 in4.1 mm
03:20 PM 54.9°F12.7°C 53.2°F11.8°C 94% 1.2 mph SSW1.9 kmh SSW -- 29.52 in999.7 mb - 0.00 in0.0 mm 0.16 in4.1 mm
03:30 PM 54.8°F12.7°C 53.1°F11.7°C 94% 1.2 mph SSW1.9 kmh SSW 2.3 mph3.7 kmh 29.52 in999.7 mb - 0.00 in0.0 mm 0.16 in4.1 mm
03:40 PM 54.6°F12.6°C 52.9°F11.6°C 94% 1.2 mph S1.9 kmh S -- 29.52 in999.7 mb - 0.00 in0.0 mm 0.16 in4.1 mm
03:50 PM 54.5°F12.5°C 52.8°F11.6°C 94% 1.2 mph SSW1.9 kmh SSW 6.9 mph11.1 kmh 29.52 in999.7 mb - 0.00 in0.0 mm 0.16 in4.1 mm
04:00 PM 54.3°F12.4°C 52.6°F11.4°C 94% 1.2 mph SW1.9 kmh SW 2.3 mph3.7 kmh 29.52 in999.7 mb - 0.00 in0.0 mm 0.16 in4.1 mm
04:10 PM 54.2°F12.3°C 52.5°F11.4°C 94% Calm Calm 3.5 mph5.6 kmh 29.52 in999.7 mb - 0.00 in0.0 mm 0.16 in4.1 mm
04:20 PM 54.1°F12.3°C 52.4°F11.3°C 94% 1.2 mph SW1.9 kmh SW 6.9 mph11.1 kmh 29.53 in1000.0 mb - 0.00 in0.0 mm 0.16 in4.1 mm
04:30 PM 54.1°F12.3°C 52.4°F11.3°C 94% Calm Calm 5.8 mph9.3 kmh 29.53 in1000.0 mb - 0.00 in0.0 mm 0.16 in4.1 mm
04:40 PM 53.7°F12.1°C 51.7°F10.9°C 93% 1.2 mph WSW1.9 kmh WSW 4.6 mph7.4 kmh 29.53 in1000.0 mb - 0.00 in0.0 mm 0.16 in4.1 mm
04:50 PM 52.8°F11.6°C 50.2°F10.1°C 91% 5.8 mph SSW9.3 kmh SSW 9.2 mph14.8 kmh 29.52 in999.7 mb - 0.00 in0.0 mm 0.16 in4.1 mm
05:00 PM 52.4°F11.3°C 49.6°F9.8°C 90% 2.3 mph SW3.7 kmh SW -- 29.53 in1000.0 mb - 0.00 in0.0 mm 0.16 in4.1 mm
05:10 PM 52.2°F11.2°C 49.3°F9.6°C 90% Calm Calm -- 29.53 in1000.0 mb - 0.00 in0.0 mm 0.16 in4.1 mm
05:20 PM 51.9°F11.1°C 49.1°F9.5°C 90% Calm Calm -- 29.53 in1000.0 mb - 0.00 in0.0 mm 0.16 in4.1 mm
05:30 PM 51.9°F11.1°C 49.0°F9.4°C 90% Calm Calm -- 29.55 in1000.7 mb - 0.00 in0.0 mm 0.16 in4.1 mm
05:40 PM 51.9°F11.1°C 49.1°F9.5°C 90% Calm Calm 6.9 mph11.1 kmh 29.54 in1000.3 mb - 0.00 in0.0 mm 0.16 in4.1 mm
05:50 PM 52.1°F11.2°C 49.3°F9.6°C 90% 1.2 mph SW1.9 kmh SW 3.5 mph5.6 kmh 29.54 in1000.3 mb - 0.00 in0.0 mm 0.16 in4.1 mm
06:00 PM 52.2°F11.2°C 49.3°F9.6°C 90% Calm Calm -- 29.53 in1000.0 mb - 0.00 in0.0 mm 0.16 in4.1 mm
06:10 PM 52.1°F11.2°C 49.3°F9.6°C 90% Calm Calm -- 29.53 in1000.0 mb - 0.00 in0.0 mm 0.16 in4.1 mm
06:20 PM 52.0°F11.1°C 49.2°F9.6°C 90% Calm Calm -- 29.53 in1000.0 mb - 0.00 in0.0 mm 0.16 in4.1 mm
06:30 PM 51.8°F11.0°C 49.0°F9.4°C 90% Calm Calm -- 29.53 in1000.0 mb - 0.00 in0.0 mm 0.16 in4.1 mm
06:40 PM 51.7°F10.9°C 48.9°F9.4°C 90% Calm Calm 2.3 mph3.7 kmh 29.52 in999.7 mb - 0.00 in0.0 mm 0.16 in4.1 mm
06:50 PM 51.5°F10.8°C 48.7°F9.3°C 90% Calm Calm -- 29.52 in999.7 mb - 0.00 in0.0 mm 0.16 in4.1 mm
07:00 PM 51.2°F10.7°C 48.7°F9.3°C 91% Calm Calm -- 29.52 in999.7 mb - 0.00 in0.0 mm 0.16 in4.1 mm
07:10 PM 50.9°F10.5°C 48.4°F9.1°C 91% Calm Calm -- 29.52 in999.7 mb - 0.01 in0.3 mm 0.17 in4.3 mm
07:20 PM 50.6°F10.3°C 48.1°F8.9°C 91% Calm Calm -- 29.51 in999.3 mb - 0.00 in0.0 mm 0.17 in4.3 mm
07:30 PM 50.6°F10.3°C 48.4°F9.1°C 92% Calm Calm -- 29.51 in999.3 mb - 0.00 in0.0 mm 0.17 in4.3 mm
07:40 PM 50.7°F10.4°C 48.7°F9.3°C 93% Calm Calm -- 29.50 in999.0 mb - 0.00 in0.0 mm 0.17 in4.3 mm
07:50 PM 50.6°F10.3°C 48.7°F9.3°C 93% Calm Calm -- 29.52 in999.7 mb - 0.00 in0.0 mm 0.17 in4.3 mm
08:00 PM 50.7°F10.4°C 48.7°F9.3°C 93% Calm Calm -- 29.51 in999.3 mb - 0.00 in0.0 mm 0.17 in4.3 mm
08:10 PM 50.8°F10.4°C 49.1°F9.5°C 94% Calm Calm 3.5 mph5.6 kmh 29.51 in999.3 mb - 0.00 in0.0 mm 0.17 in4.3 mm
08:20 PM 51.7°F10.9°C 50.3°F10.2°C 95% 2.3 mph SSW3.7 kmh SSW 2.3 mph3.7 kmh 29.51 in999.3 mb - 0.00 in0.0 mm 0.17 in4.3 mm
08:30 PM 52.4°F11.3°C 51.0°F10.6°C 95% Calm Calm 4.6 mph7.4 kmh 29.51 in999.3 mb - 0.00 in0.0 mm 0.17 in4.3 mm
08:40 PM 52.6°F11.4°C 51.2°F10.7°C 95% Calm Calm 2.3 mph3.7 kmh 29.50 in999.0 mb - 0.01 in0.3 mm 0.17 in4.3 mm
08:50 PM 52.7°F11.5°C 51.3°F10.7°C 95% 1.2 mph S1.9 kmh S 6.9 mph11.1 kmh 29.48 in998.3 mb - 0.02 in0.5 mm 0.20 in5.1 mm
09:00 PM 52.8°F11.6°C 51.4°F10.8°C 95% Calm Calm 2.3 mph3.7 kmh 29.48 in998.3 mb - 0.01 in0.3 mm 0.21 in5.3 mm
09:10 PM 52.8°F11.6°C 51.4°F10.8°C 95% Calm Calm 5.8 mph9.3 kmh 29.47 in998.0 mb - 0.00 in0.0 mm 0.21 in5.3 mm
09:20 PM 52.8°F11.6°C 51.7°F10.9°C 96% Calm Calm -- 29.47 in998.0 mb - 0.00 in0.0 mm 0.21 in5.3 mm
09:30 PM 52.9°F11.6°C 51.8°F11.0°C 96% 4.6 mph S7.4 kmh S 10.4 mph16.7 kmh 29.45 in997.3 mb - 0.00 in0.0 mm 0.21 in5.3 mm
09:40 PM 53.2°F11.8°C 52.1°F11.2°C 96% 6.9 mph SSW11.1 kmh SSW 9.2 mph14.8 kmh 29.45 in997.3 mb - 0.00 in0.0 mm 0.21 in5.3 mm
09:50 PM 53.7°F12.1°C 52.6°F11.4°C 96% 5.8 mph S9.3 kmh S 11.5 mph18.5 kmh 29.45 in997.3 mb - 0.00 in0.0 mm 0.21 in5.3 mm
10:00 PM 54.1°F12.3°C 52.9°F11.6°C 96% 6.9 mph S11.1 kmh S 10.4 mph16.7 kmh 29.44 in997.0 mb - 0.01 in0.3 mm 0.21 in5.3 mm
10:10 PM 54.3°F12.4°C 53.5°F11.9°C 97% 8.1 mph S13.0 kmh S 12.7 mph20.4 kmh 29.43 in996.6 mb - 0.00 in0.0 mm 0.21 in5.3 mm
10:20 PM 54.6°F12.6°C 53.8°F12.1°C 97% 6.9 mph S11.1 kmh S 13.8 mph22.2 kmh 29.43 in996.6 mb - 0.00 in0.0 mm 0.21 in5.3 mm
10:30 PM 55.0°F12.8°C 54.1°F12.3°C 97% 6.9 mph S11.1 kmh S 13.8 mph22.2 kmh 29.43 in996.6 mb - 0.00 in0.0 mm 0.21 in5.3 mm
10:40 PM 55.1°F12.8°C 54.3°F12.4°C 97% 3.5 mph SSW5.6 kmh SSW 18.4 mph29.6 kmh 29.43 in996.6 mb - 0.00 in0.0 mm 0.21 in5.3 mm
10:50 PM 55.2°F12.9°C 54.4°F12.4°C 97% 3.5 mph SW5.6 kmh SW 10.4 mph16.7 kmh 29.43 in996.6 mb - 0.00 in0.0 mm 0.21 in5.3 mm
11:00 PM 55.2°F12.9°C 54.4°F12.4°C 97% 3.5 mph SW5.6 kmh SW 11.5 mph18.5 kmh 29.43 in996.6 mb - 0.00 in0.0 mm 0.21 in5.3 mm
11:10 PM 55.3°F12.9°C 54.5°F12.5°C 97% 8.1 mph SSW13.0 kmh SSW 11.5 mph18.5 kmh 29.43 in996.6 mb - 0.00 in0.0 mm 0.21 in5.3 mm
11:20 PM 55.3°F12.9°C 54.5°F12.5°C 97% 4.6 mph SW7.4 kmh SW 6.9 mph11.1 kmh 29.43 in996.6 mb - 0.00 in0.0 mm 0.21 in5.3 mm
11:30 PM 55.4°F13.0°C 54.6°F12.6°C 97% 3.5 mph SSW5.6 kmh SSW 6.9 mph11.1 kmh 29.43 in996.6 mb - 0.00 in0.0 mm 0.21 in5.3 mm
11:40 PM 55.5°F13.1°C 54.7°F12.6°C 97% 2.3 mph SW3.7 kmh SW 11.5 mph18.5 kmh 29.44 in997.0 mb - 0.00 in0.0 mm 0.21 in5.3 mm
11:50 PM 55.5°F13.1°C 54.7°F12.6°C 97% 1.2 mph SSW1.9 kmh SSW 1.2 mph1.9 kmh 29.43 in996.6 mb - 0.00 in0.0 mm 0.21 in5.3 mm